createdAt,value
2019-03-13T00:00:26.596Z,10.00
2019-03-13T00:02:54.842Z,4.17
2019-03-13T00:05:23.100Z,5.47
2019-03-13T00:07:51.385Z,4.07
2019-03-13T00:10:19.668Z,4.47
2019-03-13T00:12:47.946Z,4.53
2019-03-13T00:15:16.277Z,3.93
2019-03-13T00:17:44.533Z,6.03
2019-03-13T00:20:12.848Z,5.57
2019-03-13T00:22:41.166Z,6.73
2019-03-13T00:25:09.428Z,4.73
2019-03-13T00:27:37.702Z,8.50
2019-03-13T00:30:08.071Z,3.50
2019-03-13T00:32:36.378Z,5.43
2019-03-13T00:35:05.873Z,8.83
2019-03-13T00:37:34.156Z,8.23
2019-03-13T00:40:02.393Z,7.63
2019-03-13T00:42:30.685Z,6.70
2019-03-13T00:44:58.934Z,8.53
2019-03-13T00:47:27.282Z,7.93
2019-03-13T00:49:55.538Z,6.23
2019-03-13T00:52:23.812Z,5.63
2019-03-13T00:54:52.065Z,7.00
2019-03-13T00:57:20.365Z,5.97
2019-03-13T00:59:48.637Z,1.43
2019-03-13T01:02:24.559Z,4.47
2019-03-13T01:04:57.175Z,2.63
2019-03-13T01:07:25.437Z,5.00
2019-03-13T01:09:53.720Z,2.10
2019-03-13T01:12:21.995Z,1.20
2019-03-13T01:14:50.261Z,1.80
2019-03-13T01:17:18.525Z,1.80
2019-03-13T01:19:47.099Z,1.57
2019-03-13T01:22:15.784Z,1.33
2019-03-13T01:24:44.094Z,2.07
2019-03-13T01:27:12.406Z,2.37
2019-03-13T01:29:40.668Z,1.80
2019-03-13T01:32:10.592Z,1.97
2019-03-13T01:34:40.511Z,1.77
2019-03-13T01:37:08.841Z,3.73
2019-03-13T01:39:37.090Z,4.60
2019-03-13T01:42:05.397Z,3.17
2019-03-13T01:44:33.640Z,4.60
2019-03-13T01:47:01.888Z,5.87
2019-03-13T01:49:30.183Z,4.53
2019-03-13T01:51:58.545Z,7.07
2019-03-13T01:54:26.831Z,14.00
2019-03-13T01:56:55.083Z,6.97
2019-03-13T01:59:23.355Z,4.83
2019-03-13T02:01:51.614Z,4.77
2019-03-13T02:04:19.958Z,4.97
2019-03-13T02:06:48.206Z,8.70
2019-03-13T02:09:16.462Z,6.97
2019-03-13T02:11:44.717Z,5.47
2019-03-13T02:14:13.016Z,8.97
2019-03-13T02:16:41.339Z,7.07
2019-03-13T02:19:09.614Z,8.20
2019-03-13T02:21:37.920Z,12.83
2019-03-13T02:24:06.236Z,13.10
2019-03-13T02:26:34.609Z,14.07
2019-03-13T02:29:02.968Z,12.73
2019-03-13T02:31:31.251Z,13.33
2019-03-13T02:33:59.535Z,10.47
2019-03-13T02:36:27.780Z,7.53
2019-03-13T02:38:56.078Z,7.67
2019-03-13T02:41:30.013Z,12.97
2019-03-13T02:43:58.361Z,12.97
2019-03-13T02:46:26.675Z,12.53
2019-03-13T02:48:56.408Z,12.17
2019-03-13T02:51:24.737Z,13.80
2019-03-13T02:53:53.082Z,10.03
2019-03-13T02:56:21.434Z,12.67
2019-03-13T02:58:49.866Z,10.73
2019-03-13T03:01:22.727Z,8.50
2019-03-13T03:03:52.639Z,11.13
2019-03-13T03:06:20.976Z,8.70
2019-03-13T03:08:49.424Z,13.53
2019-03-13T03:11:17.688Z,13.33
2019-03-13T03:13:46.113Z,6.33
2019-03-13T03:16:14.387Z,10.30
2019-03-13T03:18:42.774Z,9.73
2019-03-13T03:21:11.115Z,5.23
2019-03-13T03:23:39.425Z,6.90
2019-03-13T03:26:07.811Z,7.10
2019-03-13T03:28:36.094Z,8.17
2019-03-13T03:31:04.461Z,9.37
2019-03-13T03:33:32.820Z,10.33
2019-03-13T03:36:01.149Z,8.37
2019-03-13T03:38:29.678Z,9.93
2019-03-13T03:40:58.109Z,7.13
2019-03-13T03:43:39.221Z,6.63
2019-03-13T03:45:56.755Z,13.40
2019-03-13T03:48:25.107Z,8.47
2019-03-13T03:50:53.388Z,13.53
2019-03-13T03:53:21.676Z,7.67
2019-03-13T03:55:50.034Z,6.60
2019-03-13T03:58:18.365Z,13.10
2019-03-13T04:00:46.755Z,12.80
2019-03-13T04:03:15.076Z,10.13
2019-03-13T04:05:43.465Z,7.10
2019-03-13T04:08:11.922Z,9.40
2019-03-13T04:10:40.505Z,11.30
2019-03-13T04:13:11.135Z,8.57
2019-03-13T04:15:39.124Z,7.17
2019-03-13T04:18:07.407Z,8.33
2019-03-13T04:20:35.804Z,7.07
2019-03-13T04:23:04.069Z,9.50
2019-03-13T04:25:32.537Z,8.47
2019-03-13T04:28:00.865Z,9.07
2019-03-13T04:30:29.211Z,10.37
2019-03-13T04:32:57.513Z,9.80
2019-03-13T04:35:25.866Z,8.17
2019-03-13T04:37:54.417Z,11.40
2019-03-13T04:40:22.673Z,13.13
2019-03-13T04:42:51.175Z,14.87
2019-03-13T04:45:19.487Z,11.60
2019-03-13T04:47:47.763Z,14.00
2019-03-13T04:50:16.053Z,7.77
2019-03-13T04:52:44.418Z,8.33
2019-03-13T04:55:13.878Z,12.83
2019-03-13T04:57:42.200Z,11.07
2019-03-13T05:00:16.513Z,9.53
2019-03-13T05:02:44.865Z,7.50
2019-03-13T05:05:37.105Z,11.47
2019-03-13T05:08:05.466Z,10.13
2019-03-13T05:10:33.802Z,10.60
2019-03-13T05:13:02.463Z,12.97
2019-03-13T05:15:31.164Z,11.43
2019-03-13T05:17:59.494Z,12.63
2019-03-13T05:20:27.832Z,9.90
2019-03-13T05:22:56.296Z,14.00
2019-03-13T05:25:24.663Z,13.67
2019-03-13T05:27:53.050Z,11.87
2019-03-13T05:30:21.374Z,9.40
2019-03-13T05:32:49.698Z,10.20
2019-03-13T05:35:18.035Z,13.43
2019-03-13T05:37:46.414Z,11.93
2019-03-13T05:40:14.901Z,13.33
2019-03-13T05:42:43.342Z,10.57
2019-03-13T05:45:11.755Z,12.83
2019-03-13T05:47:40.106Z,15.40
2019-03-13T05:50:10.495Z,12.40
2019-03-13T05:52:38.751Z,13.60
2019-03-13T05:55:07.130Z,14.40
2019-03-13T05:57:35.555Z,9.53
2019-03-13T06:00:07.188Z,11.97
2019-03-13T06:02:35.579Z,14.20
2019-03-13T06:05:05.326Z,12.13
2019-03-13T06:07:33.838Z,16.37
2019-03-13T06:10:04.208Z,13.23
2019-03-13T06:12:32.332Z,12.83
2019-03-13T06:15:03.418Z,13.53
2019-03-13T06:17:30.663Z,12.37
2019-03-13T06:19:58.950Z,13.17
2019-03-13T06:22:27.232Z,13.00
2019-03-13T06:24:55.559Z,14.43
2019-03-13T06:27:24.023Z,17.33
2019-03-13T06:29:52.328Z,15.57
2019-03-13T06:32:20.663Z,9.33
2019-03-13T06:34:48.972Z,9.47
2019-03-13T06:37:17.265Z,14.37
2019-03-13T06:39:45.871Z,10.93
2019-03-13T06:42:14.150Z,13.23
2019-03-13T06:44:42.539Z,9.73
2019-03-13T06:47:10.869Z,14.77
2019-03-13T06:49:40.819Z,16.50
2019-03-13T06:52:09.263Z,12.53
2019-03-13T06:54:37.612Z,11.57
2019-03-13T06:57:06.314Z,13.30
2019-03-13T06:59:36.636Z,16.60
2019-03-13T07:02:06.536Z,10.17
2019-03-13T07:04:39.215Z,11.43
2019-03-13T07:07:09.142Z,14.87
2019-03-13T07:09:39.739Z,15.13
2019-03-13T07:12:16.060Z,14.67
2019-03-13T07:14:46.015Z,12.80
2019-03-13T07:17:24.754Z,16.97
2019-03-13T07:20:00.938Z,13.33
2019-03-13T07:22:30.860Z,15.87
2019-03-13T07:25:15.933Z,20.70
2019-03-13T07:27:55.058Z,14.17
2019-03-13T07:30:31.150Z,15.43
2019-03-13T07:33:04.317Z,17.53
2019-03-13T07:35:35.038Z,17.67
2019-03-13T07:38:23.171Z,16.33
2019-03-13T07:40:53.139Z,9.87
2019-03-13T07:43:23.114Z,21.40
2019-03-13T07:46:09.462Z,24.77
2019-03-13T07:48:45.640Z,20.83
2019-03-13T07:51:34.007Z,13.20
2019-03-13T07:54:04.039Z,15.37
2019-03-13T07:56:39.475Z,20.83
2019-03-13T07:59:15.433Z,14.83
2019-03-13T08:01:48.058Z,14.53
2019-03-13T08:04:19.912Z,18.23
2019-03-13T08:07:06.623Z,19.60
2019-03-13T08:09:52.842Z,15.20
2019-03-13T08:12:31.973Z,20.30
2019-03-13T08:15:07.495Z,13.50
2019-03-13T08:17:56.496Z,20.03
2019-03-13T08:20:38.891Z,21.63
2019-03-13T08:23:11.796Z,21.13
2019-03-13T08:26:01.323Z,11.43
2019-03-13T08:28:37.477Z,14.90
2019-03-13T08:31:10.367Z,15.60
2019-03-13T08:33:55.441Z,18.63
2019-03-13T08:36:41.744Z,22.80
2019-03-13T08:39:28.174Z,15.27
2019-03-13T08:42:14.930Z,24.97
2019-03-13T08:44:47.571Z,14.67
2019-03-13T08:47:20.460Z,13.67
2019-03-13T08:49:53.879Z,14.50
2019-03-13T08:52:26.730Z,20.27
2019-03-13T08:55:02.582Z,17.77
2019-03-13T08:57:35.250Z,16.27
2019-03-13T09:00:25.934Z,20.90
2019-03-13T09:03:10.905Z,14.67
2019-03-13T09:05:57.819Z,15.10
2019-03-13T09:08:44.271Z,20.37
2019-03-13T09:11:26.264Z,22.50
2019-03-13T09:14:05.226Z,13.90
2019-03-13T09:16:43.955Z,21.57
2019-03-13T09:19:30.182Z,16.50
2019-03-13T09:22:06.085Z,12.20
2019-03-13T09:24:48.003Z,18.67
2019-03-13T09:27:34.291Z,20.13
2019-03-13T09:30:04.200Z,15.63
2019-03-13T09:32:52.536Z,13.03
2019-03-13T09:35:28.568Z,11.97
2019-03-13T09:37:58.501Z,13.77
2019-03-13T09:40:40.423Z,14.53
2019-03-13T09:43:10.341Z,14.80
2019-03-13T09:45:56.520Z,21.43
2019-03-13T09:48:29.622Z,15.07
2019-03-13T09:51:16.021Z,12.53
2019-03-13T09:53:51.672Z,13.20
2019-03-13T09:56:21.566Z,16.23
2019-03-13T09:58:57.636Z,17.77
2019-03-13T10:01:44.134Z,17.37
2019-03-13T10:04:19.889Z,16.83
2019-03-13T10:06:52.524Z,16.60
2019-03-13T10:09:34.690Z,16.40
2019-03-13T10:12:07.307Z,17.30
2019-03-13T10:14:39.587Z,18.57
2019-03-13T10:17:12.496Z,14.53
2019-03-13T10:19:58.783Z,15.03
2019-03-13T10:22:34.658Z,15.17
2019-03-13T10:25:07.290Z,15.57
2019-03-13T10:27:53.242Z,9.20
2019-03-13T10:30:26.109Z,16.60
2019-03-13T10:33:02.139Z,20.53
2019-03-13T10:35:32.108Z,14.33
2019-03-13T10:38:13.153Z,12.97
2019-03-13T10:40:51.765Z,16.23
2019-03-13T10:43:27.514Z,16.10
2019-03-13T10:45:57.414Z,17.27
2019-03-13T10:48:29.983Z,12.27
2019-03-13T10:51:02.297Z,15.73
2019-03-13T10:53:32.228Z,16.53
2019-03-13T10:56:04.831Z,14.83
2019-03-13T10:58:37.411Z,19.07
2019-03-13T11:01:23.301Z,17.63
2019-03-13T11:03:56.161Z,12.13
2019-03-13T11:06:54.059Z,14.93
2019-03-13T11:09:15.977Z,15.57
2019-03-13T11:11:48.767Z,18.93
2019-03-13T11:14:34.944Z,16.07
2019-03-13T11:17:04.895Z,14.60
2019-03-13T11:19:34.798Z,16.10
2019-03-13T11:22:20.003Z,13.80
2019-03-13T11:24:49.898Z,13.90
2019-03-13T11:27:19.886Z,10.87
2019-03-13T11:29:55.997Z,13.67
2019-03-13T11:32:34.976Z,15.00
2019-03-13T11:35:05.454Z,12.57
2019-03-13T11:37:53.697Z,12.03
2019-03-13T11:40:38.908Z,14.97
2019-03-13T11:43:08.833Z,15.43
2019-03-13T11:45:57.262Z,10.33
2019-03-13T11:48:42.540Z,17.37
2019-03-13T11:51:18.175Z,8.73
2019-03-13T11:53:51.165Z,11.37
2019-03-13T11:56:32.893Z,6.50
2019-03-13T11:59:19.068Z,10.83
2019-03-13T12:01:49.006Z,16.67
2019-03-13T12:04:25.179Z,9.47
2019-03-13T12:06:55.193Z,11.87
2019-03-13T12:09:30.867Z,7.27
2019-03-13T12:12:00.812Z,8.70
2019-03-13T12:14:30.691Z,7.77
2019-03-13T12:17:00.676Z,10.00
2019-03-13T12:19:39.482Z,6.73
2019-03-13T12:22:18.438Z,8.60
2019-03-13T12:25:04.702Z,7.27
2019-03-13T12:27:40.553Z,9.07
2019-03-13T12:30:18.244Z,11.13
2019-03-13T12:32:59.960Z,6.40
2019-03-13T12:35:38.812Z,9.00
2019-03-13T12:38:24.943Z,8.93
2019-03-13T12:41:00.915Z,10.00
2019-03-13T12:43:46.212Z,7.63
2019-03-13T12:46:25.041Z,11.77
2019-03-13T12:48:54.949Z,15.70
2019-03-13T12:51:43.115Z,14.30
2019-03-13T12:54:15.951Z,9.43
2019-03-13T12:56:45.871Z,17.10
2019-03-13T12:59:15.777Z,13.13
2019-03-13T13:02:00.752Z,10.97
2019-03-13T13:04:44.376Z,10.00
2019-03-13T13:07:14.290Z,9.77
2019-03-13T13:09:50.091Z,9.90
2019-03-13T13:12:25.599Z,10.67
2019-03-13T13:15:01.510Z,8.60
2019-03-13T13:17:34.657Z,13.53
2019-03-13T13:20:03.374Z,9.13
2019-03-13T13:22:31.675Z,10.10
2019-03-13T13:24:59.975Z,8.57
2019-03-13T13:27:28.298Z,7.90
2019-03-13T13:29:56.551Z,9.20
2019-03-13T13:32:24.848Z,7.63
2019-03-13T13:34:53.189Z,10.40
2019-03-13T13:37:21.567Z,9.67
2019-03-13T13:39:49.882Z,6.17
2019-03-13T13:42:18.135Z,6.13
2019-03-13T13:44:46.468Z,8.13
2019-03-13T13:47:14.756Z,10.17
2019-03-13T13:49:43.018Z,8.97
2019-03-13T13:52:11.356Z,9.63
2019-03-13T13:54:39.655Z,8.90
2019-03-13T13:57:07.973Z,7.47
2019-03-13T13:59:36.255Z,5.53
2019-03-13T14:02:04.541Z,6.67
2019-03-13T14:04:32.873Z,13.90
2019-03-13T14:07:01.130Z,7.17
2019-03-13T14:09:29.408Z,7.40
2019-03-13T14:11:57.662Z,9.73
2019-03-13T14:14:26.014Z,11.30
2019-03-13T14:16:54.288Z,7.60
2019-03-13T14:19:22.585Z,7.33
2019-03-13T14:21:50.915Z,10.73
2019-03-13T14:24:19.212Z,5.83
2019-03-13T14:26:47.552Z,9.43
2019-03-13T14:29:15.829Z,8.23
2019-03-13T14:31:44.078Z,8.07
2019-03-13T14:34:12.349Z,6.03
2019-03-13T14:36:40.622Z,8.03
2019-03-13T14:39:08.975Z,12.50
2019-03-13T14:41:37.345Z,9.27
2019-03-13T14:44:05.691Z,8.13
2019-03-13T14:46:34.006Z,7.70
2019-03-13T14:49:02.273Z,11.80
2019-03-13T14:51:30.593Z,5.60
2019-03-13T14:53:58.870Z,9.50
2019-03-13T14:56:27.126Z,6.67
2019-03-13T14:58:55.383Z,7.00
2019-03-13T15:01:23.666Z,6.40
2019-03-13T15:03:52.002Z,5.87
2019-03-13T15:06:20.307Z,9.23
2019-03-13T15:08:48.559Z,6.63
2019-03-13T15:11:16.828Z,7.50
2019-03-13T15:13:45.152Z,6.47
2019-03-13T15:16:13.472Z,10.73
2019-03-13T15:18:41.816Z,8.07
2019-03-13T15:21:10.090Z,8.13
2019-03-13T15:23:38.391Z,4.43
2019-03-13T15:26:06.723Z,4.93
2019-03-13T15:28:35.103Z,3.97
2019-03-13T15:31:03.428Z,5.77
2019-03-13T15:33:31.746Z,8.77
2019-03-13T15:36:00.142Z,4.87
2019-03-13T15:38:28.463Z,5.03
2019-03-13T15:40:58.111Z,4.47
2019-03-13T15:43:26.618Z,7.90
2019-03-13T15:45:57.402Z,7.90
2019-03-13T15:48:25.746Z,3.00
2019-03-13T15:50:54.015Z,7.13
2019-03-13T15:53:22.301Z,5.63
2019-03-13T15:55:50.638Z,8.37
2019-03-13T15:58:18.974Z,6.00
2019-03-13T16:00:47.316Z,4.73
2019-03-13T16:03:15.731Z,5.67
2019-03-13T16:05:44.054Z,5.73
2019-03-13T16:08:12.473Z,6.97
2019-03-13T16:10:40.884Z,8.43
2019-03-13T16:13:09.433Z,7.23
2019-03-13T16:15:39.676Z,9.83
2019-03-13T16:18:08.146Z,9.33
2019-03-13T16:20:36.512Z,7.23
2019-03-13T16:23:04.868Z,5.73
2019-03-13T16:25:33.280Z,6.90
2019-03-13T16:28:01.688Z,5.33
2019-03-13T16:30:40.283Z,7.53
2019-03-13T16:33:08.628Z,6.87
2019-03-13T16:35:36.945Z,6.60
2019-03-13T16:38:05.255Z,9.60
2019-03-13T16:40:33.711Z,7.60
2019-03-13T16:43:02.080Z,5.33
2019-03-13T16:45:30.386Z,8.00
2019-03-13T16:47:58.666Z,4.53
2019-03-13T16:50:35.489Z,7.40
2019-03-13T16:53:05.291Z,6.77
2019-03-13T16:55:33.693Z,6.60
2019-03-13T16:58:02.046Z,6.37
2019-03-13T17:00:31.655Z,9.33
2019-03-13T17:02:59.994Z,7.10
2019-03-13T17:05:28.684Z,4.60
2019-03-13T17:07:57.020Z,5.73
2019-03-13T17:10:29.093Z,6.43
2019-03-13T17:12:57.408Z,7.70
2019-03-13T17:15:25.947Z,4.93
2019-03-13T17:17:57.038Z,5.30
2019-03-13T17:20:29.870Z,6.60
2019-03-13T17:22:58.149Z,6.27
2019-03-13T17:25:26.510Z,10.37
2019-03-13T17:27:54.887Z,4.00
2019-03-13T17:30:32.754Z,5.90
2019-03-13T17:33:01.242Z,4.90
2019-03-13T17:35:29.500Z,6.93
2019-03-13T17:37:57.781Z,3.87
2019-03-13T17:40:27.034Z,5.70
2019-03-13T17:42:55.307Z,7.00
2019-03-13T17:45:24.437Z,3.57
2019-03-13T17:47:57.121Z,7.27
2019-03-13T17:50:25.814Z,3.90
2019-03-13T17:52:55.110Z,5.17
2019-03-13T17:55:24.232Z,4.77
2019-03-13T17:57:52.494Z,5.97
2019-03-13T18:00:33.455Z,6.67
2019-03-13T18:03:01.793Z,7.30
2019-03-13T18:05:30.199Z,4.43
2019-03-13T18:07:58.503Z,3.93
2019-03-13T18:10:26.754Z,9.97
2019-03-13T18:12:55.101Z,6.00
2019-03-13T18:15:23.427Z,4.73
2019-03-13T18:17:53.126Z,4.03
2019-03-13T18:20:22.854Z,5.70
2019-03-13T18:22:51.132Z,3.63
2019-03-13T18:25:19.389Z,4.27
2019-03-13T18:27:47.676Z,4.97
2019-03-13T18:30:20.684Z,5.47
2019-03-13T18:32:48.995Z,5.27
2019-03-13T18:35:17.819Z,5.57
2019-03-13T18:37:46.085Z,4.10
2019-03-13T18:40:16.361Z,6.10
2019-03-13T18:42:44.709Z,6.47
2019-03-13T18:45:15.876Z,7.67
2019-03-13T18:47:44.152Z,9.70
2019-03-13T18:50:16.091Z,6.40
2019-03-13T18:52:44.610Z,8.50
2019-03-13T18:55:21.037Z,5.37
2019-03-13T18:57:50.786Z,7.07
2019-03-13T19:00:23.841Z,5.23
2019-03-13T19:02:52.120Z,10.70
2019-03-13T19:05:20.443Z,4.60
2019-03-13T19:07:48.713Z,8.30
2019-03-13T19:10:19.270Z,7.50
2019-03-13T19:12:47.595Z,6.27
2019-03-13T19:15:19.460Z,7.13
2019-03-13T19:17:47.592Z,7.30
2019-03-13T19:20:17.934Z,6.87
2019-03-13T19:22:46.223Z,6.83
2019-03-13T19:25:15.287Z,6.83
2019-03-13T19:27:43.718Z,6.57
2019-03-13T19:30:31.962Z,4.70
2019-03-13T19:33:00.333Z,4.43
2019-03-13T19:35:28.836Z,5.30
2019-03-13T19:37:59.793Z,5.87
2019-03-13T19:40:28.070Z,6.37
2019-03-13T19:42:56.360Z,5.60
2019-03-13T19:45:28.172Z,5.83
2019-03-13T19:48:00.842Z,4.70
2019-03-13T19:50:28.370Z,5.90
2019-03-13T19:52:56.764Z,3.20
2019-03-13T19:55:25.043Z,6.13
2019-03-13T19:57:53.343Z,3.60
2019-03-13T20:00:26.426Z,5.33
2019-03-13T20:03:00.850Z,5.43
2019-03-13T20:05:29.357Z,4.70
2019-03-13T20:07:57.650Z,4.10
2019-03-13T20:10:30.224Z,6.43
2019-03-13T20:12:58.778Z,7.17
2019-03-13T20:15:34.501Z,4.77
2019-03-13T20:18:02.877Z,6.50
2019-03-13T20:20:31.136Z,6.67
2019-03-13T20:23:08.036Z,8.10
2019-03-13T20:25:45.173Z,7.20
2019-03-13T20:28:13.449Z,6.37
2019-03-13T20:30:41.873Z,12.10
2019-03-13T20:33:10.129Z,8.37
2019-03-13T20:35:38.402Z,13.87
2019-03-13T20:38:06.676Z,14.93
2019-03-13T20:40:34.939Z,18.93
2019-03-13T20:43:03.241Z,17.03
2019-03-13T20:45:31.575Z,12.30
2019-03-13T20:47:59.930Z,12.77
2019-03-13T20:50:36.699Z,16.70
2019-03-13T20:52:58.220Z,17.23
2019-03-13T20:55:26.741Z,17.93
2019-03-13T20:57:56.696Z,11.07
2019-03-13T21:00:27.056Z,19.50
2019-03-13T21:02:56.087Z,7.80
2019-03-13T21:05:24.755Z,12.87
2019-03-13T21:07:59.871Z,14.43
2019-03-13T21:10:31.198Z,17.13
2019-03-13T21:12:59.692Z,16.63
2019-03-13T21:15:28.311Z,13.67
2019-03-13T21:17:56.598Z,12.10
2019-03-13T21:20:25.024Z,8.67
2019-03-13T21:22:53.811Z,11.17
2019-03-13T21:25:26.639Z,15.67
2019-03-13T21:27:55.037Z,21.40
2019-03-13T21:30:26.878Z,15.10
2019-03-13T21:32:55.229Z,15.90
2019-03-13T21:35:23.499Z,14.40
2019-03-13T21:37:51.829Z,24.03
2019-03-13T21:40:22.571Z,23.07
2019-03-13T21:42:54.274Z,11.90
2019-03-13T21:45:22.775Z,16.87
2019-03-13T21:47:50.825Z,21.43
2019-03-13T21:50:19.498Z,23.30
2019-03-13T21:52:47.808Z,17.00
2019-03-13T21:55:16.885Z,19.47
2019-03-13T21:57:45.151Z,15.83
2019-03-13T22:00:19.839Z,29.00
2019-03-13T22:02:48.167Z,14.50
2019-03-13T22:05:25.692Z,20.37
2019-03-13T22:07:46.448Z,17.43
2019-03-13T22:10:15.759Z,16.63
2019-03-13T22:12:44.118Z,18.27
2019-03-13T22:15:22.033Z,20.40
2019-03-13T22:17:50.390Z,22.23
2019-03-13T22:20:19.122Z,17.03
2019-03-13T22:22:47.445Z,19.07
2019-03-13T22:25:16.921Z,19.40
2019-03-13T22:27:45.222Z,34.63
2019-03-13T22:30:21.470Z,19.53
2019-03-13T22:32:49.754Z,19.20
2019-03-13T22:35:18.106Z,10.37
2019-03-13T22:37:46.367Z,14.57
2019-03-13T22:40:15.791Z,13.73
2019-03-13T22:42:44.086Z,10.37
2019-03-13T22:45:19.336Z,14.37
2019-03-13T22:47:47.665Z,10.43
2019-03-13T22:50:22.761Z,11.63
2019-03-13T22:52:51.103Z,11.23
2019-03-13T22:55:19.479Z,13.30
2019-03-13T22:57:47.958Z,8.73
2019-03-13T23:00:29.313Z,8.43
2019-03-13T23:02:57.696Z,10.13
2019-03-13T23:05:25.996Z,6.30
2019-03-13T23:07:54.331Z,9.17
2019-03-13T23:10:31.197Z,12.43
2019-03-13T23:12:59.499Z,10.63
2019-03-13T23:15:27.751Z,13.43
2019-03-13T23:17:56.027Z,13.27
2019-03-13T23:20:24.267Z,9.53
2019-03-13T23:22:52.574Z,9.87
2019-03-13T23:25:20.896Z,10.43
2019-03-13T23:27:49.174Z,8.43
2019-03-13T23:30:17.459Z,12.97
2019-03-13T23:32:45.787Z,10.20
2019-03-13T23:35:14.048Z,11.10
2019-03-13T23:37:42.323Z,12.90
2019-03-13T23:40:10.582Z,16.73
2019-03-13T23:42:38.873Z,11.10
2019-03-13T23:45:09.098Z,12.60
2019-03-13T23:47:37.565Z,15.53
2019-03-13T23:50:15.091Z,14.63
2019-03-13T23:52:43.408Z,20.63
2019-03-13T23:55:11.675Z,17.13
2019-03-13T23:57:39.946Z,15.97
